sensor_id;sensor_type;location;lat;lon;timestamp;P1;durP1;ratioP1;P2;durP2;ratioP2
64351;SDS011;50680;52.626;-8.668;2023-07-13T00:01:53;7.80;;;4.30;;
64351;SDS011;50680;52.626;-8.668;2023-07-13T00:04:21;8.68;;;4.60;;
64351;SDS011;50680;52.626;-8.668;2023-07-13T00:06:52;6.97;;;4.20;;
64351;SDS011;50680;52.626;-8.668;2023-07-13T00:09:20;8.95;;;3.92;;
64351;SDS011;50680;52.626;-8.668;2023-07-13T00:11:52;5.88;;;3.97;;
64351;SDS011;50680;52.626;-8.668;2023-07-13T00:14:22;7.90;;;3.88;;
64351;SDS011;50680;52.626;-8.668;2023-07-13T00:16:50;6.00;;;4.53;;
64351;SDS011;50680;52.626;-8.668;2023-07-13T00:19:17;10.85;;;4.43;;
64351;SDS011;50680;52.626;-8.668;2023-07-13T00:21:45;7.05;;;4.30;;
64351;SDS011;50680;52.626;-8.668;2023-07-13T00:24:14;6.38;;;4.20;;
64351;SDS011;50680;52.626;-8.668;2023-07-13T00:26:42;6.70;;;4.10;;
64351;SDS011;50680;52.626;-8.668;2023-07-13T00:29:12;7.27;;;4.37;;
64351;SDS011;50680;52.626;-8.668;2023-07-13T00:31:40;7.10;;;4.07;;
64351;SDS011;50680;52.626;-8.668;2023-07-13T00:34:07;5.30;;;3.53;;
64351;SDS011;50680;52.626;-8.668;2023-07-13T00:36:34;7.45;;;4.25;;
64351;SDS011;50680;52.626;-8.668;2023-07-13T00:39:01;6.93;;;4.20;;
64351;SDS011;50680;52.626;-8.668;2023-07-13T00:41:30;9.88;;;4.32;;
64351;SDS011;50680;52.626;-8.668;2023-07-13T00:43:58;6.38;;;4.65;;
64351;SDS011;50680;52.626;-8.668;2023-07-13T00:46:34;8.85;;;4.70;;
64351;SDS011;50680;52.626;-8.668;2023-07-13T00:49:02;5.63;;;4.47;;
64351;SDS011;50680;52.626;-8.668;2023-07-13T00:54:11;9.00;;;4.30;;
64351;SDS011;50680;52.626;-8.668;2023-07-13T00:56:41;5.95;;;4.05;;
64351;SDS011;50680;52.626;-8.668;2023-07-13T00:59:11;5.72;;;3.75;;
64351;SDS011;50680;52.626;-8.668;2023-07-13T01:01:40;6.22;;;3.88;;
64351;SDS011;50680;52.626;-8.668;2023-07-13T01:04:07;5.43;;;3.95;;
64351;SDS011;50680;52.626;-8.668;2023-07-13T01:06:35;5.72;;;3.70;;
64351;SDS011;50680;52.626;-8.668;2023-07-13T01:09:04;7.53;;;3.58;;
64351;SDS011;50680;52.626;-8.668;2023-07-13T01:11:33;7.75;;;3.97;;
64351;SDS011;50680;52.626;-8.668;2023-07-13T01:14:02;6.53;;;3.50;;
64351;SDS011;50680;52.626;-8.668;2023-07-13T01:16:30;7.88;;;3.22;;
64351;SDS011;50680;52.626;-8.668;2023-07-13T01:18:59;7.38;;;3.95;;
64351;SDS011;50680;52.626;-8.668;2023-07-13T01:21:28;7.70;;;3.92;;
64351;SDS011;50680;52.626;-8.668;2023-07-13T01:23:56;4.90;;;3.30;;
64351;SDS011;50680;52.626;-8.668;2023-07-13T01:26:24;8.98;;;4.20;;
64351;SDS011;50680;52.626;-8.668;2023-07-13T01:28:51;10.20;;;3.75;;
64351;SDS011;50680;52.626;-8.668;2023-07-13T01:31:18;9.50;;;4.00;;
64351;SDS011;50680;52.626;-8.668;2023-07-13T01:33:48;12.45;;;4.53;;
64351;SDS011;50680;52.626;-8.668;2023-07-13T01:36:14;8.65;;;4.15;;
64351;SDS011;50680;52.626;-8.668;2023-07-13T01:38:42;8.95;;;4.05;;
64351;SDS011;50680;52.626;-8.668;2023-07-13T01:41:10;18.77;;;4.60;;
64351;SDS011;50680;52.626;-8.668;2023-07-13T01:43:37;7.70;;;3.95;;
64351;SDS011;50680;52.626;-8.668;2023-07-13T01:46:04;5.78;;;3.58;;
64351;SDS011;50680;52.626;-8.668;2023-07-13T01:48:47;7.35;;;3.75;;
64351;SDS011;50680;52.626;-8.668;2023-07-13T01:51:15;14.35;;;3.67;;
64351;SDS011;50680;52.626;-8.668;2023-07-13T01:53:42;10.38;;;4.15;;
64351;SDS011;50680;52.626;-8.668;2023-07-13T01:56:09;11.98;;;3.80;;
64351;SDS011;50680;52.626;-8.668;2023-07-13T01:58:36;14.95;;;4.53;;
64351;SDS011;50680;52.626;-8.668;2023-07-13T02:01:04;8.98;;;4.03;;
64351;SDS011;50680;52.626;-8.668;2023-07-13T02:03:31;16.30;;;4.00;;
64351;SDS011;50680;52.626;-8.668;2023-07-13T02:05:58;10.73;;;3.88;;
64351;SDS011;50680;52.626;-8.668;2023-07-13T02:08:25;7.32;;;3.53;;
64351;SDS011;50680;52.626;-8.668;2023-07-13T02:10:52;16.98;;;3.92;;
64351;SDS011;50680;52.626;-8.668;2023-07-13T02:13:19;8.25;;;3.90;;
64351;SDS011;50680;52.626;-8.668;2023-07-13T02:15:46;12.45;;;3.97;;
64351;SDS011;50680;52.626;-8.668;2023-07-13T02:18:17;13.43;;;3.75;;
64351;SDS011;50680;52.626;-8.668;2023-07-13T02:20:44;9.98;;;3.55;;
64351;SDS011;50680;52.626;-8.668;2023-07-13T02:23:11;9.27;;;3.88;;
64351;SDS011;50680;52.626;-8.668;2023-07-13T02:25:38;12.90;;;3.35;;
64351;SDS011;50680;52.626;-8.668;2023-07-13T02:28:05;7.30;;;3.58;;
64351;SDS011;50680;52.626;-8.668;2023-07-13T02:30:33;11.05;;;3.38;;
64351;SDS011;50680;52.626;-8.668;2023-07-13T02:33:01;12.02;;;3.70;;
64351;SDS011;50680;52.626;-8.668;2023-07-13T02:35:28;15.77;;;3.83;;
64351;SDS011;50680;52.626;-8.668;2023-07-13T02:37:55;14.95;;;4.13;;
64351;SDS011;50680;52.626;-8.668;2023-07-13T02:40:22;12.10;;;3.78;;
64351;SDS011;50680;52.626;-8.668;2023-07-13T02:42:49;14.98;;;3.72;;
64351;SDS011;50680;52.626;-8.668;2023-07-13T02:45:16;8.80;;;3.75;;
64351;SDS011;50680;52.626;-8.668;2023-07-13T02:47:43;14.85;;;3.67;;
64351;SDS011;50680;52.626;-8.668;2023-07-13T02:50:10;12.10;;;3.80;;
64351;SDS011;50680;52.626;-8.668;2023-07-13T02:52:37;13.32;;;4.47;;
64351;SDS011;50680;52.626;-8.668;2023-07-13T02:55:04;19.48;;;4.05;;
64351;SDS011;50680;52.626;-8.668;2023-07-13T02:57:31;14.35;;;4.55;;
64351;SDS011;50680;52.626;-8.668;2023-07-13T02:59:59;15.73;;;3.88;;
64351;SDS011;50680;52.626;-8.668;2023-07-13T03:02:27;11.77;;;4.07;;
64351;SDS011;50680;52.626;-8.668;2023-07-13T03:04:55;11.68;;;4.40;;
64351;SDS011;50680;52.626;-8.668;2023-07-13T03:07:22;11.07;;;4.35;;
64351;SDS011;50680;52.626;-8.668;2023-07-13T03:09:53;16.10;;;4.32;;
64351;SDS011;50680;52.626;-8.668;2023-07-13T03:12:22;14.38;;;4.22;;
64351;SDS011;50680;52.626;-8.668;2023-07-13T03:14:49;10.68;;;4.40;;
64351;SDS011;50680;52.626;-8.668;2023-07-13T03:17:17;12.60;;;4.50;;
64351;SDS011;50680;52.626;-8.668;2023-07-13T03:19:44;15.15;;;4.93;;
64351;SDS011;50680;52.626;-8.668;2023-07-13T03:22:11;13.20;;;4.07;;
64351;SDS011;50680;52.626;-8.668;2023-07-13T03:24:37;10.50;;;4.78;;
64351;SDS011;50680;52.626;-8.668;2023-07-13T03:27:05;9.07;;;4.78;;
64351;SDS011;50680;52.626;-8.668;2023-07-13T03:29:32;10.85;;;4.60;;
64351;SDS011;50680;52.626;-8.668;2023-07-13T03:31:59;11.82;;;4.32;;
64351;SDS011;50680;52.626;-8.668;2023-07-13T03:34:26;15.50;;;3.95;;
64351;SDS011;50680;52.626;-8.668;2023-07-13T03:36:54;14.20;;;4.35;;
64351;SDS011;50680;52.626;-8.668;2023-07-13T03:39:21;16.45;;;4.95;;
64351;SDS011;50680;52.626;-8.668;2023-07-13T03:41:49;11.80;;;4.35;;
64351;SDS011;50680;52.626;-8.668;2023-07-13T03:44:16;14.93;;;5.38;;
64351;SDS011;50680;52.626;-8.668;2023-07-13T03:46:44;9.85;;;4.82;;
64351;SDS011;50680;52.626;-8.668;2023-07-13T03:49:12;12.73;;;4.43;;
64351;SDS011;50680;52.626;-8.668;2023-07-13T03:51:39;16.80;;;4.63;;
64351;SDS011;50680;52.626;-8.668;2023-07-13T03:54:06;15.95;;;4.93;;
64351;SDS011;50680;52.626;-8.668;2023-07-13T03:56:33;10.95;;;4.75;;
64351;SDS011;50680;52.626;-8.668;2023-07-13T03:59:00;11.18;;;5.15;;
64351;SDS011;50680;52.626;-8.668;2023-07-13T04:01:27;11.57;;;4.45;;
64351;SDS011;50680;52.626;-8.668;2023-07-13T04:03:54;13.77;;;4.60;;
64351;SDS011;50680;52.626;-8.668;2023-07-13T04:06:23;15.35;;;4.75;;
64351;SDS011;50680;52.626;-8.668;2023-07-13T04:08:54;15.07;;;4.80;;
64351;SDS011;50680;52.626;-8.668;2023-07-13T04:11:23;18.10;;;6.00;;
64351;SDS011;50680;52.626;-8.668;2023-07-13T04:13:51;17.80;;;4.78;;
64351;SDS011;50680;52.626;-8.668;2023-07-13T04:16:19;16.40;;;5.22;;
64351;SDS011;50680;52.626;-8.668;2023-07-13T04:18:47;16.58;;;5.00;;
64351;SDS011;50680;52.626;-8.668;2023-07-13T04:21:15;11.75;;;5.50;;
64351;SDS011;50680;52.626;-8.668;2023-07-13T04:23:42;11.23;;;5.00;;
64351;SDS011;50680;52.626;-8.668;2023-07-13T04:26:09;16.10;;;5.40;;
64351;SDS011;50680;52.626;-8.668;2023-07-13T04:28:37;12.80;;;6.10;;
64351;SDS011;50680;52.626;-8.668;2023-07-13T04:31:04;16.45;;;5.88;;
64351;SDS011;50680;52.626;-8.668;2023-07-13T04:33:31;18.00;;;5.00;;
64351;SDS011;50680;52.626;-8.668;2023-07-13T04:35:58;16.80;;;4.95;;
64351;SDS011;50680;52.626;-8.668;2023-07-13T04:38:26;13.02;;;4.72;;
64351;SDS011;50680;52.626;-8.668;2023-07-13T04:40:55;14.30;;;5.28;;
64351;SDS011;50680;52.626;-8.668;2023-07-13T04:43:24;15.23;;;5.15;;
64351;SDS011;50680;52.626;-8.668;2023-07-13T04:45:52;12.60;;;5.28;;
64351;SDS011;50680;52.626;-8.668;2023-07-13T04:48:19;16.30;;;5.13;;
64351;SDS011;50680;52.626;-8.668;2023-07-13T04:50:47;16.77;;;5.45;;
64351;SDS011;50680;52.626;-8.668;2023-07-13T04:53:22;11.07;;;4.70;;
64351;SDS011;50680;52.626;-8.668;2023-07-13T04:55:49;14.63;;;4.70;;
64351;SDS011;50680;52.626;-8.668;2023-07-13T04:58:17;12.15;;;4.97;;
64351;SDS011;50680;52.626;-8.668;2023-07-13T05:00:44;16.60;;;4.60;;
64351;SDS011;50680;52.626;-8.668;2023-07-13T05:03:11;18.02;;;5.03;;
64351;SDS011;50680;52.626;-8.668;2023-07-13T05:05:38;15.60;;;4.57;;
64351;SDS011;50680;52.626;-8.668;2023-07-13T05:08:05;16.05;;;5.03;;
64351;SDS011;50680;52.626;-8.668;2023-07-13T05:10:34;9.43;;;4.72;;
64351;SDS011;50680;52.626;-8.668;2023-07-13T05:13:02;9.65;;;4.20;;
64351;SDS011;50680;52.626;-8.668;2023-07-13T05:15:29;11.63;;;4.53;;
64351;SDS011;50680;52.626;-8.668;2023-07-13T05:17:56;11.32;;;4.43;;
64351;SDS011;50680;52.626;-8.668;2023-07-13T05:20:23;14.55;;;4.10;;
64351;SDS011;50680;52.626;-8.668;2023-07-13T05:22:50;8.98;;;4.15;;
64351;SDS011;50680;52.626;-8.668;2023-07-13T05:25:17;15.15;;;4.47;;
64351;SDS011;50680;52.626;-8.668;2023-07-13T05:27:44;13.35;;;4.38;;
64351;SDS011;50680;52.626;-8.668;2023-07-13T05:30:12;10.35;;;4.18;;
64351;SDS011;50680;52.626;-8.668;2023-07-13T05:32:40;12.00;;;3.83;;
64351;SDS011;50680;52.626;-8.668;2023-07-13T05:35:07;10.27;;;4.57;;
64351;SDS011;50680;52.626;-8.668;2023-07-13T05:37:36;13.57;;;4.18;;
64351;SDS011;50680;52.626;-8.668;2023-07-13T05:40:04;7.10;;;3.40;;
64351;SDS011;50680;52.626;-8.668;2023-07-13T05:42:31;7.47;;;3.72;;
64351;SDS011;50680;52.626;-8.668;2023-07-13T05:44:58;6.95;;;3.28;;
64351;SDS011;50680;52.626;-8.668;2023-07-13T05:47:25;10.88;;;3.47;;
64351;SDS011;50680;52.626;-8.668;2023-07-13T05:49:52;14.35;;;3.90;;
64351;SDS011;50680;52.626;-8.668;2023-07-13T05:52:20;6.53;;;3.30;;
64351;SDS011;50680;52.626;-8.668;2023-07-13T05:54:47;7.40;;;3.05;;
64351;SDS011;50680;52.626;-8.668;2023-07-13T05:57:14;5.63;;;3.22;;
64351;SDS011;50680;52.626;-8.668;2023-07-13T05:59:41;6.47;;;2.38;;
64351;SDS011;50680;52.626;-8.668;2023-07-13T06:02:09;9.90;;;2.70;;
64351;SDS011;50680;52.626;-8.668;2023-07-13T06:04:37;5.70;;;2.65;;
64351;SDS011;50680;52.626;-8.668;2023-07-13T06:07:04;6.72;;;2.65;;
64351;SDS011;50680;52.626;-8.668;2023-07-13T06:09:31;6.45;;;2.25;;
64351;SDS011;50680;52.626;-8.668;2023-07-13T06:11:58;4.80;;;2.10;;
64351;SDS011;50680;52.626;-8.668;2023-07-13T06:14:25;5.97;;;2.20;;
64351;SDS011;50680;52.626;-8.668;2023-07-13T06:16:52;4.07;;;2.03;;
64351;SDS011;50680;52.626;-8.668;2023-07-13T06:19:19;7.47;;;2.15;;
64351;SDS011;50680;52.626;-8.668;2023-07-13T06:21:46;4.53;;;2.60;;
64351;SDS011;50680;52.626;-8.668;2023-07-13T06:24:13;6.65;;;2.00;;
64351;SDS011;50680;52.626;-8.668;2023-07-13T06:26:40;4.03;;;2.33;;
64351;SDS011;50680;52.626;-8.668;2023-07-13T06:29:07;7.05;;;2.25;;
64351;SDS011;50680;52.626;-8.668;2023-07-13T06:31:34;4.90;;;2.47;;
64351;SDS011;50680;52.626;-8.668;2023-07-13T06:34:01;5.68;;;2.30;;
64351;SDS011;50680;52.626;-8.668;2023-07-13T06:36:29;2.88;;;2.03;;
64351;SDS011;50680;52.626;-8.668;2023-07-13T06:38:55;4.78;;;2.28;;
64351;SDS011;50680;52.626;-8.668;2023-07-13T06:41:23;3.95;;;2.00;;
64351;SDS011;50680;52.626;-8.668;2023-07-13T06:43:52;6.57;;;2.55;;
64351;SDS011;50680;52.626;-8.668;2023-07-13T06:46:21;5.22;;;2.25;;
64351;SDS011;50680;52.626;-8.668;2023-07-13T06:48:49;4.03;;;2.08;;
64351;SDS011;50680;52.626;-8.668;2023-07-13T06:51:16;8.30;;;2.28;;
64351;SDS011;50680;52.626;-8.668;2023-07-13T06:53:43;5.93;;;2.85;;
64351;SDS011;50680;52.626;-8.668;2023-07-13T06:56:10;5.55;;;2.58;;
64351;SDS011;50680;52.626;-8.668;2023-07-13T06:58:37;4.85;;;2.35;;
64351;SDS011;50680;52.626;-8.668;2023-07-13T07:01:05;5.18;;;2.85;;
64351;SDS011;50680;52.626;-8.668;2023-07-13T07:03:34;6.75;;;2.63;;
64351;SDS011;50680;52.626;-8.668;2023-07-13T07:06:22;8.82;;;3.38;;
64351;SDS011;50680;52.626;-8.668;2023-07-13T07:08:52;6.88;;;2.92;;
64351;SDS011;50680;52.626;-8.668;2023-07-13T07:11:20;8.10;;;3.00;;
64351;SDS011;50680;52.626;-8.668;2023-07-13T07:13:51;9.45;;;3.20;;
64351;SDS011;50680;52.626;-8.668;2023-07-13T07:16:20;9.38;;;3.10;;
64351;SDS011;50680;52.626;-8.668;2023-07-13T07:18:47;5.45;;;3.05;;
64351;SDS011;50680;52.626;-8.668;2023-07-13T07:21:14;7.40;;;2.65;;
64351;SDS011;50680;52.626;-8.668;2023-07-13T07:23:42;4.78;;;2.75;;
64351;SDS011;50680;52.626;-8.668;2023-07-13T07:26:09;6.80;;;2.78;;
64351;SDS011;50680;52.626;-8.668;2023-07-13T07:28:36;4.90;;;2.47;;
64351;SDS011;50680;52.626;-8.668;2023-07-13T07:31:09;8.60;;;2.67;;
64351;SDS011;50680;52.626;-8.668;2023-07-13T07:33:39;6.63;;;2.92;;
64351;SDS011;50680;52.626;-8.668;2023-07-13T07:36:06;5.50;;;2.42;;
64351;SDS011;50680;52.626;-8.668;2023-07-13T07:38:36;6.30;;;2.35;;
64351;SDS011;50680;52.626;-8.668;2023-07-13T07:41:04;7.63;;;2.15;;
64351;SDS011;50680;52.626;-8.668;2023-07-13T07:43:34;7.65;;;2.88;;
64351;SDS011;50680;52.626;-8.668;2023-07-13T07:46:01;6.15;;;2.45;;
64351;SDS011;50680;52.626;-8.668;2023-07-13T07:48:29;6.93;;;2.25;;
64351;SDS011;50680;52.626;-8.668;2023-07-13T07:50:57;6.72;;;2.50;;
64351;SDS011;50680;52.626;-8.668;2023-07-13T07:53:23;5.55;;;2.75;;
64351;SDS011;50680;52.626;-8.668;2023-07-13T07:55:50;8.65;;;3.00;;
64351;SDS011;50680;52.626;-8.668;2023-07-13T07:58:20;8.65;;;2.55;;
64351;SDS011;50680;52.626;-8.668;2023-07-13T08:00:50;7.07;;;2.85;;
64351;SDS011;50680;52.626;-8.668;2023-07-13T08:03:20;6.63;;;2.92;;
64351;SDS011;50680;52.626;-8.668;2023-07-13T08:05:52;11.68;;;3.45;;
64351;SDS011;50680;52.626;-8.668;2023-07-13T08:08:40;7.00;;;2.65;;
64351;SDS011;50680;52.626;-8.668;2023-07-13T08:11:09;12.70;;;3.70;;
64351;SDS011;50680;52.626;-8.668;2023-07-13T08:13:40;11.50;;;3.47;;
64351;SDS011;50680;52.626;-8.668;2023-07-13T08:16:07;6.90;;;2.88;;
64351;SDS011;50680;52.626;-8.668;2023-07-13T08:18:34;4.88;;;2.60;;
64351;SDS011;50680;52.626;-8.668;2023-07-13T08:21:05;5.18;;;2.95;;
64351;SDS011;50680;52.626;-8.668;2023-07-13T08:23:32;5.50;;;2.67;;
64351;SDS011;50680;52.626;-8.668;2023-07-13T08:26:00;5.68;;;2.70;;
64351;SDS011;50680;52.626;-8.668;2023-07-13T08:28:28;7.13;;;2.70;;
64351;SDS011;50680;52.626;-8.668;2023-07-13T08:31:00;7.05;;;3.15;;
64351;SDS011;50680;52.626;-8.668;2023-07-13T08:33:31;7.97;;;3.10;;
64351;SDS011;50680;52.626;-8.668;2023-07-13T08:35:58;6.60;;;2.85;;
64351;SDS011;50680;52.626;-8.668;2023-07-13T08:38:25;9.23;;;3.10;;
64351;SDS011;50680;52.626;-8.668;2023-07-13T08:40:53;7.28;;;2.63;;
64351;SDS011;50680;52.626;-8.668;2023-07-13T08:43:26;5.63;;;2.80;;
64351;SDS011;50680;52.626;-8.668;2023-07-13T08:46:14;4.78;;;3.08;;
64351;SDS011;50680;52.626;-8.668;2023-07-13T08:48:49;6.30;;;2.92;;
64351;SDS011;50680;52.626;-8.668;2023-07-13T08:51:48;4.07;;;1.90;;
64351;SDS011;50680;52.626;-8.668;2023-07-13T08:54:28;5.95;;;2.00;;
64351;SDS011;50680;52.626;-8.668;2023-07-13T08:57:13;4.05;;;2.15;;
64351;SDS011;50680;52.626;-8.668;2023-07-13T08:59:45;3.65;;;1.88;;
64351;SDS011;50680;52.626;-8.668;2023-07-13T09:08:32;2.65;;;1.52;;
64351;SDS011;50680;52.626;-8.668;2023-07-13T09:10:37;4.78;;;1.30;;
64351;SDS011;50680;52.626;-8.668;2023-07-13T09:15:52;4.60;;;1.58;;
64351;SDS011;50680;52.626;-8.668;2023-07-13T09:18:25;3.28;;;1.40;;
64351;SDS011;50680;52.626;-8.668;2023-07-13T09:21:13;3.58;;;1.30;;
64351;SDS011;50680;52.626;-8.668;2023-07-13T09:23:43;2.75;;;1.10;;
64351;SDS011;50680;52.626;-8.668;2023-07-13T09:28:46;1.38;;;1.23;;
64351;SDS011;50680;52.626;-8.668;2023-07-13T09:33:50;4.65;;;1.60;;
64351;SDS011;50680;52.626;-8.668;2023-07-13T09:36:22;1.73;;;1.40;;
64351;SDS011;50680;52.626;-8.668;2023-07-13T09:39:01;4.60;;;1.67;;
64351;SDS011;50680;52.626;-8.668;2023-07-13T09:46:39;2.40;;;1.60;;
64351;SDS011;50680;52.626;-8.668;2023-07-13T09:49:10;7.32;;;1.70;;
64351;SDS011;50680;52.626;-8.668;2023-07-13T09:51:39;3.17;;;1.83;;
64351;SDS011;50680;52.626;-8.668;2023-07-13T09:54:21;1.53;;;1.43;;
64351;SDS011;50680;52.626;-8.668;2023-07-13T09:56:53;4.93;;;1.63;;
64351;SDS011;50680;52.626;-8.668;2023-07-13T09:59:33;3.28;;;1.38;;
64351;SDS011;50680;52.626;-8.668;2023-07-13T10:02:01;2.58;;;1.58;;
64351;SDS011;50680;52.626;-8.668;2023-07-13T10:04:32;2.25;;;1.40;;
64351;SDS011;50680;52.626;-8.668;2023-07-13T10:07:04;4.03;;;1.95;;
64351;SDS011;50680;52.626;-8.668;2023-07-13T10:09:54;3.42;;;1.77;;
64351;SDS011;50680;52.626;-8.668;2023-07-13T10:12:21;3.83;;;1.48;;
64351;SDS011;50680;52.626;-8.668;2023-07-13T10:14:55;3.33;;;1.90;;
64351;SDS011;50680;52.626;-8.668;2023-07-13T10:17:45;3.15;;;2.28;;
64351;SDS011;50680;52.626;-8.668;2023-07-13T10:20:12;3.65;;;2.03;;
64351;SDS011;50680;52.626;-8.668;2023-07-13T10:25:33;6.15;;;2.22;;
64351;SDS011;50680;52.626;-8.668;2023-07-13T10:28:06;4.35;;;2.35;;
64351;SDS011;50680;52.626;-8.668;2023-07-13T10:30:53;3.50;;;2.17;;
64351;SDS011;50680;52.626;-8.668;2023-07-13T10:33:23;3.90;;;2.30;;
64351;SDS011;50680;52.626;-8.668;2023-07-13T10:35:51;4.30;;;2.30;;
64351;SDS011;50680;52.626;-8.668;2023-07-13T10:38:32;4.53;;;2.28;;
64351;SDS011;50680;52.626;-8.668;2023-07-13T10:41:04;6.55;;;2.50;;
64351;SDS011;50680;52.626;-8.668;2023-07-13T10:43:40;7.05;;;2.33;;
64351;SDS011;50680;52.626;-8.668;2023-07-13T10:46:14;3.75;;;2.78;;
64351;SDS011;50680;52.626;-8.668;2023-07-13T10:48:43;5.35;;;2.63;;
64351;SDS011;50680;52.626;-8.668;2023-07-13T10:51:14;8.13;;;3.00;;
64351;SDS011;50680;52.626;-8.668;2023-07-13T10:53:44;5.82;;;2.70;;
64351;SDS011;50680;52.626;-8.668;2023-07-13T11:04:19;8.10;;;2.90;;
64351;SDS011;50680;52.626;-8.668;2023-07-13T11:06:48;9.82;;;3.35;;
64351;SDS011;50680;52.626;-8.668;2023-07-13T11:09:33;12.05;;;2.95;;
64351;SDS011;50680;52.626;-8.668;2023-07-13T11:25:34;5.30;;;2.70;;
64351;SDS011;50680;52.626;-8.668;2023-07-13T11:33:20;6.82;;;3.13;;
64351;SDS011;50680;52.626;-8.668;2023-07-13T11:38:33;12.32;;;3.30;;
64351;SDS011;50680;52.626;-8.668;2023-07-13T11:43:52;6.38;;;2.30;;
64351;SDS011;50680;52.626;-8.668;2023-07-13T11:46:21;7.20;;;2.60;;
64351;SDS011;50680;52.626;-8.668;2023-07-13T11:48:53;5.45;;;2.10;;
64351;SDS011;50680;52.626;-8.668;2023-07-13T11:51:22;5.97;;;2.90;;
64351;SDS011;50680;52.626;-8.668;2023-07-13T11:53:53;5.30;;;2.03;;
64351;SDS011;50680;52.626;-8.668;2023-07-13T11:56:24;2.67;;;1.80;;
64351;SDS011;50680;52.626;-8.668;2023-07-13T11:58:53;4.03;;;1.77;;
64351;SDS011;50680;52.626;-8.668;2023-07-13T12:01:23;4.20;;;1.63;;
64351;SDS011;50680;52.626;-8.668;2023-07-13T12:06:54;4.95;;;2.47;;
64351;SDS011;50680;52.626;-8.668;2023-07-13T12:09:19;7.72;;;2.75;;
64351;SDS011;50680;52.626;-8.668;2023-07-13T12:11:51;4.30;;;2.30;;
64351;SDS011;50680;52.626;-8.668;2023-07-13T12:14:18;4.82;;;2.20;;
64351;SDS011;50680;52.626;-8.668;2023-07-13T12:16:46;7.10;;;2.25;;
64351;SDS011;50680;52.626;-8.668;2023-07-13T12:19:17;3.50;;;1.80;;
64351;SDS011;50680;52.626;-8.668;2023-07-13T12:21:48;2.92;;;1.58;;
64351;SDS011;50680;52.626;-8.668;2023-07-13T12:24:17;2.78;;;1.40;;
64351;SDS011;50680;52.626;-8.668;2023-07-13T12:26:50;2.38;;;1.88;;
64351;SDS011;50680;52.626;-8.668;2023-07-13T12:29:28;4.25;;;1.90;;
64351;SDS011;50680;52.626;-8.668;2023-07-13T12:31:55;5.53;;;1.98;;
64351;SDS011;50680;52.626;-8.668;2023-07-13T12:34:23;6.30;;;1.52;;
64351;SDS011;50680;52.626;-8.668;2023-07-13T12:36:53;2.60;;;1.42;;
64351;SDS011;50680;52.626;-8.668;2023-07-13T12:39:35;2.60;;;1.45;;
64351;SDS011;50680;52.626;-8.668;2023-07-13T12:45:00;1.92;;;1.30;;
64351;SDS011;50680;52.626;-8.668;2023-07-13T12:47:31;2.95;;;1.00;;
64351;SDS011;50680;52.626;-8.668;2023-07-13T12:50:12;2.58;;;1.13;;
64351;SDS011;50680;52.626;-8.668;2023-07-13T12:52:42;1.80;;;1.13;;
64351;SDS011;50680;52.626;-8.668;2023-07-13T12:55:15;1.63;;;1.50;;
64351;SDS011;50680;52.626;-8.668;2023-07-13T12:57:53;2.63;;;1.30;;
64351;SDS011;50680;52.626;-8.668;2023-07-13T13:02:56;2.35;;;0.90;;
64351;SDS011;50680;52.626;-8.668;2023-07-13T13:05:41;1.45;;;1.05;;
64351;SDS011;50680;52.626;-8.668;2023-07-13T13:08:10;3.42;;;0.88;;
64351;SDS011;50680;52.626;-8.668;2023-07-13T13:10:38;1.90;;;0.70;;
64351;SDS011;50680;52.626;-8.668;2023-07-13T13:13:05;1.77;;;0.70;;
64351;SDS011;50680;52.626;-8.668;2023-07-13T13:15:32;1.08;;;0.60;;
64351;SDS011;50680;52.626;-8.668;2023-07-13T13:17:59;2.42;;;0.60;;
64351;SDS011;50680;52.626;-8.668;2023-07-13T13:20:26;0.57;;;0.50;;
64351;SDS011;50680;52.626;-8.668;2023-07-13T13:22:54;1.08;;;0.50;;
64351;SDS011;50680;52.626;-8.668;2023-07-13T13:25:21;2.45;;;0.50;;
64351;SDS011;50680;52.626;-8.668;2023-07-13T13:27:49;0.75;;;0.57;;
64351;SDS011;50680;52.626;-8.668;2023-07-13T13:30:16;1.30;;;0.73;;
64351;SDS011;50680;52.626;-8.668;2023-07-13T13:32:45;0.98;;;0.57;;
64351;SDS011;50680;52.626;-8.668;2023-07-13T13:35:17;1.77;;;0.60;;
64351;SDS011;50680;52.626;-8.668;2023-07-13T13:37:46;1.52;;;0.70;;
64351;SDS011;50680;52.626;-8.668;2023-07-13T13:40:20;1.55;;;0.50;;
64351;SDS011;50680;52.626;-8.668;2023-07-13T13:42:50;1.00;;;0.45;;
64351;SDS011;50680;52.626;-8.668;2023-07-13T13:45:19;1.38;;;0.40;;
64351;SDS011;50680;52.626;-8.668;2023-07-13T13:47:47;0.50;;;0.50;;
64351;SDS011;50680;52.626;-8.668;2023-07-13T13:50:16;0.68;;;0.38;;
64351;SDS011;50680;52.626;-8.668;2023-07-13T13:52:45;0.50;;;0.50;;
64351;SDS011;50680;52.626;-8.668;2023-07-13T13:55:13;4.78;;;1.15;;
64351;SDS011;50680;52.626;-8.668;2023-07-13T13:57:40;0.70;;;0.70;;
64351;SDS011;50680;52.626;-8.668;2023-07-13T14:00:09;2.25;;;0.70;;
64351;SDS011;50680;52.626;-8.668;2023-07-13T14:02:41;2.97;;;0.90;;
64351;SDS011;50680;52.626;-8.668;2023-07-13T14:05:23;2.45;;;0.75;;
64351;SDS011;50680;52.626;-8.668;2023-07-13T14:07:53;3.17;;;1.00;;
64351;SDS011;50680;52.626;-8.668;2023-07-13T14:10:20;2.10;;;0.80;;
64351;SDS011;50680;52.626;-8.668;2023-07-13T14:12:48;2.53;;;0.98;;
64351;SDS011;50680;52.626;-8.668;2023-07-13T14:15:26;0.73;;;0.52;;
64351;SDS011;50680;52.626;-8.668;2023-07-13T14:17:54;3.67;;;0.90;;
64351;SDS011;50680;52.626;-8.668;2023-07-13T14:20:22;1.10;;;0.63;;
64351;SDS011;50680;52.626;-8.668;2023-07-13T14:22:53;2.70;;;0.90;;
64351;SDS011;50680;52.626;-8.668;2023-07-13T14:25:21;3.53;;;0.70;;
64351;SDS011;50680;52.626;-8.668;2023-07-13T14:27:49;1.10;;;0.82;;
64351;SDS011;50680;52.626;-8.668;2023-07-13T14:30:20;1.73;;;0.88;;
64351;SDS011;50680;52.626;-8.668;2023-07-13T14:32:48;2.08;;;0.80;;
64351;SDS011;50680;52.626;-8.668;2023-07-13T14:35:18;4.20;;;0.93;;
64351;SDS011;50680;52.626;-8.668;2023-07-13T14:37:50;2.65;;;1.02;;
64351;SDS011;50680;52.626;-8.668;2023-07-13T14:40:19;3.92;;;1.10;;
64351;SDS011;50680;52.626;-8.668;2023-07-13T14:42:52;7.47;;;1.05;;
64351;SDS011;50680;52.626;-8.668;2023-07-13T14:45:20;1.05;;;0.90;;
64351;SDS011;50680;52.626;-8.668;2023-07-13T14:47:47;2.90;;;0.80;;
64351;SDS011;50680;52.626;-8.668;2023-07-13T14:50:15;1.45;;;1.00;;
64351;SDS011;50680;52.626;-8.668;2023-07-13T14:52:45;5.40;;;0.90;;
64351;SDS011;50680;52.626;-8.668;2023-07-13T14:55:14;2.92;;;1.05;;
64351;SDS011;50680;52.626;-8.668;2023-07-13T14:57:45;1.67;;;0.90;;
64351;SDS011;50680;52.626;-8.668;2023-07-13T15:00:16;4.13;;;1.00;;
64351;SDS011;50680;52.626;-8.668;2023-07-13T15:02:45;2.70;;;0.90;;
64351;SDS011;50680;52.626;-8.668;2023-07-13T15:05:17;4.50;;;1.10;;
64351;SDS011;50680;52.626;-8.668;2023-07-13T15:07:47;6.45;;;1.17;;
64351;SDS011;50680;52.626;-8.668;2023-07-13T15:10:16;4.75;;;1.17;;
64351;SDS011;50680;52.626;-8.668;2023-07-13T15:12:51;6.80;;;1.00;;
64351;SDS011;50680;52.626;-8.668;2023-07-13T15:15:19;4.15;;;1.10;;
64351;SDS011;50680;52.626;-8.668;2023-07-13T15:17:46;5.47;;;1.60;;
64351;SDS011;50680;52.626;-8.668;2023-07-13T15:23:03;4.70;;;1.20;;
64351;SDS011;50680;52.626;-8.668;2023-07-13T15:25:31;3.58;;;1.77;;
64351;SDS011;50680;52.626;-8.668;2023-07-13T15:28:00;5.32;;;1.15;;
64351;SDS011;50680;52.626;-8.668;2023-07-13T15:30:47;5.25;;;1.30;;
64351;SDS011;50680;52.626;-8.668;2023-07-13T15:33:23;6.90;;;1.67;;
64351;SDS011;50680;52.626;-8.668;2023-07-13T15:35:53;3.67;;;1.30;;
64351;SDS011;50680;52.626;-8.668;2023-07-13T15:38:30;2.63;;;1.50;;
64351;SDS011;50680;52.626;-8.668;2023-07-13T15:40:58;4.43;;;1.40;;
64351;SDS011;50680;52.626;-8.668;2023-07-13T15:43:25;4.20;;;1.50;;
64351;SDS011;50680;52.626;-8.668;2023-07-13T15:45:53;4.85;;;1.55;;
64351;SDS011;50680;52.626;-8.668;2023-07-13T15:48:21;3.33;;;1.20;;
64351;SDS011;50680;52.626;-8.668;2023-07-13T15:50:53;8.07;;;1.40;;
64351;SDS011;50680;52.626;-8.668;2023-07-13T15:53:23;3.80;;;1.52;;